Flight Track Log - Related Links

Times and Time Zones

All times are in EDT time to prevent confusion due to time zone crossing. See the USC105 flight status page for this flight to view local times or setup timezone preferences in your user account.

Time Position Orientation Groundspeed Altitude Reporting Facility
EDT Latitude Longitude Course Direction KTS MPH feet Rate Location/Type
Fri 12:11:03 AM 42.2214 -83.5611 253° West 111 128 1,600  Level Cleveland Center
Fri 12:11:58 AM 42.2122 -83.5969 251° West 119 137 2,500 991 Climbing Cleveland Center
Fri 12:12:58 AM 42.2131 -83.6447 271° West 120 138 3,500 992 Climbing Cleveland Center
Fri 12:13:59 AM 42.2097 -83.6922 265° West 123 142 4,500 945 Climbing Cleveland Center
Fri 12:15:05 AM 42.2103 -83.7428 271° West 127 146 5,500 756 Climbing Cleveland Center
Fri 12:16:06 AM 42.2028 -83.7928 259° West 143 165 6,100 192 Climbing Cleveland Center
Fri 12:17:41 AM 42.2031 -83.8847 270° West 172 198 6,000  Descending Chicago Center
Fri 12:18:42 AM 42.2000 -83.9514 266° West 177 204 6,100  Climbing Chicago Center
Fri 12:19:42 AM 42.1969 -84.0189 267° West 180 207 6,000  Descending Chicago Center
Fri 12:20:43 AM 42.1939 -84.0872 267° West 182 209 6,100 50 Climbing Chicago Center
Fri 12:21:43 AM 42.1911 -84.1558 267° West 184 212 6,100  Level Chicago Center
Fri 12:22:44 AM 42.1867 -84.2214 265° West 180 207 6,100  Level Chicago Center
Fri 12:23:45 AM 42.1831 -84.2875 266° West 177 204 6,100  Level Chicago Center
Fri 12:24:45 AM 42.1794 -84.3647 266° West 175 201 6,100 -50 Level Chicago Center
Fri 12:25:46 AM 42.1764 -84.4281 266° West 175 201 6,000  Descending Chicago Center
Fri 12:26:46 AM 42.1731 -84.4950 266° West 174 200 6,100  Climbing Chicago Center
Fri 12:27:47 AM 42.1703 -84.5578 267° West 175 201 6,000  Descending Chicago Center
Fri 12:28:48 AM 42.1661 -84.6222 265° West 174 200 6,100 50 Climbing Chicago Center
Fri 12:29:48 AM 42.1628 -84.6861 266° West 173 199 6,100 -50 Level Chicago Center
Fri 12:30:49 AM 42.1583 -84.7500 265° West 173 199 6,000  Descending Chicago Center
Fri 12:31:49 AM 42.1556 -84.8164 267° West 176 203 6,100  Climbing Chicago Center
Fri 12:32:50 AM 42.1511 -84.8789 265° West 172 198 6,000  Descending Chicago Center
Fri 12:33:50 AM 42.1475 -84.9433 266° West 172 198 6,100 50 Climbing Chicago Center
Fri 12:34:51 AM 42.1444 -85.0058 266° West 171 197 6,100  Level Chicago Center
Fri 12:35:51 AM 42.1411 -85.0700 266° West 172 198 6,100  Level Chicago Center
Fri 12:36:52 AM 42.1364 -85.1336 264° West 172 198 6,100  Level Chicago Center
Fri 12:37:52 AM 42.1328 -85.1981 266° West 173 199 6,100 -50 Level Chicago Center
Fri 12:38:53 AM 42.1286 -85.2625 265° West 174 200 6,000  Descending Chicago Center
Fri 12:39:53 AM 42.1244 -85.3283 265° West 176 203 6,100  Climbing Chicago Center
Fri 12:40:54 AM 42.1200 -85.4089 266° West 179 206 6,000  Descending Chicago Center
Fri 12:41:54 AM 42.1158 -85.4747 265° West 179 206 6,100  Climbing Chicago Center
Fri 12:42:55 AM 42.1122 -85.5419 266° West 180 207 6,000  Descending Chicago Center
Fri 12:43:55 AM 42.1069 -85.6094 264° West 182 209 6,100  Climbing Chicago Center
Fri 12:44:55 AM 42.1039 -85.6767 267° West 181 208 6,000 -50 Descending Chicago Center
Fri 12:45:56 AM 42.0992 -85.7431 265° West 180 207 6,000 50 Level Chicago Center
Fri 12:46:56 AM 42.0947 -85.8103 265° West 180 207 6,100 50 Climbing Chicago Center
Fri 12:47:57 AM 42.0894 -85.8783 264° West 182 209 6,100  Level Chicago Center
Fri 12:48:57 AM 42.0856 -85.9467 266° West 183 211 6,100 -50 Level Chicago Center
Fri 12:49:58 AM 42.0817 -86.0142 266° West 183 211 6,000 -50 Descending Chicago Center
Fri 12:50:58 AM 42.0767 -86.0814 264° West 182 209 6,000 50 Level Chicago Center
Fri 12:51:59 AM 42.0728 -86.1489 266° West 182 209 6,100  Climbing Chicago Center
Fri 12:52:59 AM 42.0672 -86.2169 264° West 183 211 6,000 -50 Descending Chicago Center
Fri 12:53:59 AM 42.0614 -86.2828 263° West 180 207 6,000  Level Chicago Center
Fri 12:55:00 AM 42.0578 -86.3494 266° West 179 206 6,000  Level Chicago Center
Fri 12:56:00 AM 42.0536 -86.4175 265° West 182 209 6,000  Level Chicago Center
Fri 12:57:01 AM 42.0483 -86.4844 264° West 181 208 6,000  Level Chicago Center
Fri 12:58:01 AM 42.0433 -86.5503 264° West 179 206 6,000  Level Chicago Center
Fri 12:59:01 AM 42.0389 -86.6181 265° West 181 208 6,000  Level Chicago Center
Fri 01:00:02 AM 42.0333 -86.6931 264° West 180 207 6,000  Level Chicago Center
Fri 01:01:02 AM 42.0294 -86.7614 266° West 184 212 6,000 -50 Level Chicago Center
Fri 01:02:02 AM 42.0247 -86.8297 265° West 184 212 5,900 -50 Descending Chicago Center
Fri 01:03:03 AM 42.0186 -86.8975 263° West 185 213 5,900  Level Chicago Center
Fri 01:04:03 AM 42.0139 -86.9675 265° West 187 215 5,900  Level Chicago Center
Fri 01:05:03 AM 42.0083 -87.0367 264° West 188 216 5,900  Level Chicago Center
Fri 01:06:04 AM 42.0039 -87.1069 265° West 189 217 5,900  Level Chicago Center
Fri 01:07:04 AM 41.9983 -87.1758 264° West 188 216 5,900  Level Chicago Center
Fri 01:08:04 AM 41.9944 -87.2461 266° West 189 217 5,900  Level Chicago Center
Fri 01:09:05 AM 41.9875 -87.3153 262° West 189 217 5,900  Level Chicago Center
Fri 01:10:05 AM 41.9819 -87.3842 264° West 187 215 5,900  Level Chicago Center
Fri 01:10:23 AM 41.9833 -87.4167 273° West 183 211 5,900 77 Level Chicago TRACON
Fri 01:11:23 AM 41.9667 -87.4833 251° West 179 206 6,000  Climbing Chicago TRACON
Fri 01:12:23 AM 41.9667 -87.5500 270° West 173 199 5,900 -50 Descending Chicago TRACON
Fri 01:13:23 AM 41.9667 -87.6000 270° West 171 197 5,900  Level Chicago TRACON
Fri 01:14:23 AM 41.9500 -87.6667 251° West 172 198 5,900  Level Chicago TRACON
Fri 01:15:24 AM 41.9500 -87.7333 270° West 171 197 5,900  Level Chicago TRACON
Fri 01:16:24 AM 41.9500 -87.8000 270° West 167 192 5,900  Level Chicago TRACON
Fri 01:17:24 AM 41.9500 -87.8500 270° West 163 188 5,900  Level Chicago TRACON
Fri 01:18:30 AM 41.9333 -87.9167 251° West 172 198 5,900 -238 Level Chicago TRACON
Fri 01:19:30 AM 41.9333 -87.9833 270° West 179 206 5,400 -600 Descending Chicago TRACON
Fri 01:20:30 AM 41.9000 -88.0333 228° Southwest 177 204 4,700 -727 Descending Chicago TRACON
Fri 01:21:09 AM 41.8744 -88.0578 215° Southwest 178 205 4,200 -909 Descending Chicago Center
Fri 01:22:09 AM 41.8358 -88.1028 221° Southwest 180 207 3,200 -595 Descending Chicago Center
Fri 01:23:10 AM 41.8011 -88.1472 224° Southwest 179 206 3,000 -99 Descending Chicago Center
Fri 01:24:10 AM 41.7719 -88.1869 225° Southwest 166 191 3,000 -250 Level Chicago Center
Fri 01:25:10 AM 41.7597 -88.2367 252° West 161 185 2,500 -248 Descending Chicago Center
Fri 01:26:11 AM 41.7717 -88.2947 285° West 167 192 2,500 -99 Level Chicago Center
Fri 01:27:11 AM 41.8161 -88.2806 13° North 170 196 2,300 -400 Descending Chicago Center
Fri 01:28:11 AM 41.8567 -88.2667 14° North 161 185 1,700 -645 Descending Chicago Center
Fri 01:29:12 AM 41.8939 -88.2542 14° North 148 170 1,000 -689 Descending Chicago Center

Login

Don't have an account? Register now (free) for customized features, flight alerts, and more!